createdAt,value
2023-03-16T00:00:20.390Z,68.67
2023-03-16T00:02:25.020Z,69.11
2023-03-16T00:04:29.808Z,69.05
2023-03-16T00:06:34.551Z,68.99
2023-03-16T00:08:39.235Z,69.13
2023-03-16T00:10:44.206Z,69.27
2023-03-16T00:12:48.836Z,69.14
2023-03-16T00:14:53.940Z,69.52
2023-03-16T00:16:58.808Z,69.73
2023-03-16T00:19:04.393Z,69.57
2023-03-16T00:21:09.120Z,69.99
2023-03-16T00:23:13.767Z,70.16
2023-03-16T00:25:18.711Z,70.30
2023-03-16T00:27:25.123Z,70.44
2023-03-16T00:29:29.769Z,70.13
2023-03-16T00:31:34.487Z,70.41
2023-03-16T00:33:41.521Z,70.13
2023-03-16T00:35:48.758Z,69.88
2023-03-16T00:37:53.487Z,69.91
2023-03-16T00:39:58.518Z,69.83
2023-03-16T00:42:03.261Z,70.10
2023-03-16T00:44:08.027Z,69.86
2023-03-16T00:46:14.693Z,69.60
2023-03-16T00:48:21.021Z,69.58
2023-03-16T00:50:26.022Z,69.76
2023-03-16T00:52:31.156Z,70.00
2023-03-16T00:54:35.809Z,69.75
2023-03-16T00:56:40.850Z,69.82
2023-03-16T00:58:45.561Z,69.77
2023-03-16T01:00:50.267Z,69.70
2023-03-16T01:02:59.457Z,69.56
2023-03-16T01:05:04.582Z,69.41
2023-03-16T01:07:12.051Z,69.52
2023-03-16T01:09:16.837Z,69.61
2023-03-16T01:11:23.184Z,69.47
2023-03-16T01:13:27.892Z,69.94
2023-03-16T01:15:33.839Z,70.11
2023-03-16T01:17:38.533Z,70.35
2023-03-16T01:19:44.285Z,70.27
2023-03-16T01:21:48.937Z,70.42
2023-03-16T01:23:53.570Z,70.42
2023-03-16T01:25:59.025Z,70.73
2023-03-16T01:28:03.662Z,70.82
2023-03-16T01:30:10.389Z,70.90
2023-03-16T01:32:15.392Z,71.10
2023-03-16T01:34:20.445Z,71.23
2023-03-16T01:36:25.335Z,71.53
2023-03-16T01:38:44.801Z,71.59
2023-03-16T01:40:50.084Z,71.34
2023-03-16T01:43:03.642Z,71.30
2023-03-16T01:45:41.825Z,71.40
2023-03-16T01:47:46.556Z,71.83
2023-03-16T01:49:55.898Z,71.64
2023-03-16T01:52:07.368Z,71.56
2023-03-16T01:54:18.534Z,71.56
2023-03-16T01:56:27.252Z,71.87
2023-03-16T01:58:33.064Z,71.81
2023-03-16T02:00:37.717Z,71.85
2023-03-16T02:02:58.388Z,71.85
2023-03-16T02:05:19.596Z,72.00
2023-03-16T02:07:27.768Z,72.18
2023-03-16T02:09:34.952Z,72.29
2023-03-16T02:11:39.622Z,72.27
2023-03-16T02:13:49.196Z,72.36
2023-03-16T02:15:54.797Z,72.41
2023-03-16T02:18:00.363Z,72.42
2023-03-16T02:20:17.481Z,72.37
2023-03-16T02:22:25.330Z,72.58
2023-03-16T02:24:30.310Z,72.80
2023-03-16T02:26:41.251Z,72.89
2023-03-16T02:28:52.069Z,72.86
2023-03-16T02:30:57.349Z,72.81
2023-03-16T02:33:02.588Z,72.87
2023-03-16T02:35:09.909Z,72.65
2023-03-16T02:37:14.895Z,72.72
2023-03-16T02:39:19.774Z,72.68
2023-03-16T02:41:24.449Z,72.79
2023-03-16T02:43:36.182Z,72.92
2023-03-16T02:45:58.443Z,73.07
2023-03-16T02:48:09.471Z,72.93
2023-03-16T02:50:14.544Z,73.22
2023-03-16T02:52:19.206Z,73.24
2023-03-16T02:54:23.898Z,73.26
2023-03-16T02:56:29.396Z,73.31
2023-03-16T02:58:34.166Z,73.51
2023-03-16T03:00:39.658Z,73.54
2023-03-16T03:02:44.357Z,73.55
2023-03-16T03:04:50.189Z,73.64
2023-03-16T03:06:54.891Z,73.79
2023-03-16T03:08:59.592Z,73.70
2023-03-16T03:11:04.527Z,73.72
2023-03-16T03:13:09.335Z,73.70
2023-03-16T03:15:14.253Z,73.76
2023-03-16T03:17:26.524Z,73.89
2023-03-16T03:19:31.244Z,73.87
2023-03-16T03:21:35.915Z,73.96
2023-03-16T03:23:40.654Z,73.91
2023-03-16T03:25:45.612Z,74.24
2023-03-16T03:27:51.859Z,74.44
2023-03-16T03:29:57.859Z,74.55
2023-03-16T03:32:02.964Z,74.38
2023-03-16T03:34:08.613Z,74.32
2023-03-16T03:36:14.125Z,74.39
2023-03-16T03:38:18.944Z,74.20
2023-03-16T03:40:23.929Z,74.45
2023-03-16T03:42:34.497Z,74.30
2023-03-16T03:44:39.822Z,74.67
2023-03-16T03:46:44.846Z,74.28
2023-03-16T03:48:49.635Z,74.41
2023-03-16T03:50:54.592Z,74.12
2023-03-16T03:53:18.328Z,74.29
2023-03-16T03:55:41.931Z,74.40
2023-03-16T03:57:46.690Z,74.37
2023-03-16T03:59:51.581Z,74.48
2023-03-16T04:02:15.729Z,74.74
2023-03-16T04:04:27.556Z,74.41
2023-03-16T04:06:32.304Z,74.69
2023-03-16T04:08:37.462Z,74.76
2023-03-16T04:10:47.103Z,74.65
2023-03-16T04:12:52.025Z,74.60
2023-03-16T04:14:57.130Z,74.70
2023-03-16T04:17:02.347Z,74.44
2023-03-16T04:19:07.071Z,74.61
2023-03-16T04:21:16.134Z,74.46
2023-03-16T04:23:22.304Z,74.43
2023-03-16T04:25:27.727Z,74.84
2023-03-16T04:27:32.697Z,74.71
2023-03-16T04:29:37.714Z,74.89
2023-03-16T04:31:42.874Z,74.80
2023-03-16T04:33:47.469Z,74.64
2023-03-16T04:35:52.352Z,74.67
2023-03-16T04:37:57.899Z,74.81
2023-03-16T04:40:11.019Z,74.63
2023-03-16T04:42:16.432Z,74.79
2023-03-16T04:44:21.264Z,74.83
2023-03-16T04:46:27.165Z,74.88
2023-03-16T04:48:35.412Z,75.23
2023-03-16T04:50:40.320Z,74.88
2023-03-16T04:52:44.976Z,75.01
2023-03-16T04:54:49.744Z,75.11
2023-03-16T04:56:55.031Z,75.10
2023-03-16T04:59:08.148Z,74.91
2023-03-16T05:01:31.394Z,74.99
2023-03-16T05:03:36.976Z,74.90
2023-03-16T05:05:42.133Z,75.31
2023-03-16T05:07:46.968Z,75.43
2023-03-16T05:09:51.791Z,75.62
2023-03-16T05:11:56.533Z,75.44
2023-03-16T05:14:01.256Z,75.43
2023-03-16T05:16:08.622Z,75.61
2023-03-16T05:18:15.865Z,75.55
2023-03-16T05:20:20.682Z,75.72
2023-03-16T05:22:28.363Z,75.84
2023-03-16T05:24:45.060Z,75.81
2023-03-16T05:26:49.767Z,75.82
2023-03-16T05:28:54.897Z,75.92
2023-03-16T05:31:05.753Z,75.73
2023-03-16T05:33:16.187Z,75.69
2023-03-16T05:35:23.665Z,75.56
2023-03-16T05:37:28.951Z,75.43
2023-03-16T05:39:33.797Z,75.25
2023-03-16T05:41:38.489Z,75.42
2023-03-16T05:43:55.182Z,75.08
2023-03-16T05:46:00.856Z,75.18
2023-03-16T05:48:05.880Z,75.08
2023-03-16T05:50:13.599Z,75.12
2023-03-16T05:52:19.734Z,74.76
2023-03-16T05:54:24.853Z,74.92
2023-03-16T05:56:30.138Z,74.76
2023-03-16T05:58:35.098Z,74.49
2023-03-16T06:00:42.117Z,74.65
2023-03-16T06:02:54.168Z,74.35
2023-03-16T06:04:59.535Z,74.24
2023-03-16T06:07:07.483Z,74.27
2023-03-16T06:09:12.195Z,74.12
2023-03-16T06:11:17.190Z,73.98
2023-03-16T06:13:26.082Z,73.92
2023-03-16T06:15:31.297Z,73.93
2023-03-16T06:17:38.913Z,73.53
2023-03-16T06:19:44.164Z,73.42
2023-03-16T06:21:49.645Z,73.33
2023-03-16T06:23:57.230Z,73.24
2023-03-16T06:26:02.703Z,72.96
2023-03-16T06:28:11.085Z,72.60
2023-03-16T06:30:19.214Z,72.54
2023-03-16T06:32:23.944Z,72.43
2023-03-16T06:34:28.679Z,72.25
2023-03-16T06:36:33.736Z,72.06
2023-03-16T06:38:39.495Z,71.88
2023-03-16T06:40:55.044Z,71.96
2023-03-16T06:42:59.982Z,71.64
2023-03-16T06:45:09.621Z,71.55
2023-03-16T06:47:17.218Z,71.05
2023-03-16T06:49:25.035Z,70.91
2023-03-16T06:51:32.018Z,70.68
2023-03-16T06:53:36.835Z,70.69
2023-03-16T06:55:44.677Z,70.67
2023-03-16T06:57:49.772Z,70.49
2023-03-16T06:59:56.537Z,70.27
2023-03-16T07:02:01.181Z,70.02
2023-03-16T07:04:06.201Z,69.82
2023-03-16T07:06:11.605Z,69.62
2023-03-16T07:08:16.301Z,69.46
2023-03-16T07:10:21.594Z,69.14
2023-03-16T07:12:26.333Z,68.93
2023-03-16T07:14:31.544Z,68.80
2023-03-16T07:16:36.696Z,68.45
2023-03-16T07:18:43.278Z,67.95
2023-03-16T07:20:48.973Z,67.94
2023-03-16T07:22:59.068Z,67.92
2023-03-16T07:25:04.336Z,67.67
2023-03-16T07:27:12.432Z,67.46
2023-03-16T07:29:17.747Z,67.16
2023-03-16T07:31:22.742Z,66.76
2023-03-16T07:33:27.585Z,66.42
2023-03-16T07:35:36.419Z,66.65
2023-03-16T07:37:44.288Z,65.96
2023-03-16T07:39:51.007Z,65.78
2023-03-16T07:41:56.221Z,65.06
2023-03-16T07:44:23.920Z,64.44
2023-03-16T07:46:32.957Z,64.87
2023-03-16T07:48:38.594Z,64.81
2023-03-16T07:50:47.260Z,64.01
2023-03-16T07:52:52.395Z,63.60
2023-03-16T07:54:57.123Z,64.05
2023-03-16T07:57:01.975Z,63.54
2023-03-16T07:59:21.920Z,63.67
2023-03-16T08:01:27.429Z,63.39
2023-03-16T08:03:32.582Z,63.19
2023-03-16T08:05:37.402Z,61.84
2023-03-16T08:07:47.881Z,61.13
2023-03-16T08:09:57.009Z,60.00
2023-03-16T08:12:09.014Z,59.28
2023-03-16T08:14:13.888Z,58.50
2023-03-16T08:16:37.202Z,57.73
2023-03-16T08:18:42.544Z,58.10
2023-03-16T08:20:51.383Z,57.30
2023-03-16T08:22:56.473Z,57.71
2023-03-16T08:25:05.060Z,57.83
2023-03-16T08:27:16.129Z,57.58
2023-03-16T08:29:23.496Z,57.77
2023-03-16T08:31:29.520Z,57.53
2023-03-16T08:33:49.115Z,57.68
2023-03-16T08:36:02.369Z,57.18
2023-03-16T08:38:10.115Z,56.43
2023-03-16T08:40:15.194Z,56.06
2023-03-16T08:42:20.569Z,55.89
2023-03-16T08:44:29.533Z,56.08
2023-03-16T08:46:43.699Z,55.01
2023-03-16T08:48:52.743Z,55.31
2023-03-16T08:50:57.429Z,54.00
2023-03-16T08:53:02.226Z,52.35
2023-03-16T08:55:08.365Z,51.94
2023-03-16T08:57:13.130Z,51.52
2023-03-16T08:59:28.942Z,50.30
2023-03-16T09:01:34.910Z,50.90
2023-03-16T09:03:40.034Z,50.91
2023-03-16T09:05:44.676Z,50.64
2023-03-16T09:07:49.612Z,50.74
2023-03-16T09:09:54.600Z,49.37
2023-03-16T09:11:59.302Z,48.13
2023-03-16T09:14:04.089Z,47.41
2023-03-16T09:16:11.771Z,47.29
2023-03-16T09:18:16.502Z,46.22
2023-03-16T09:20:26.489Z,46.19
2023-03-16T09:22:31.389Z,47.05
2023-03-16T09:24:38.864Z,47.52
2023-03-16T09:26:46.631Z,47.17
2023-03-16T09:28:51.296Z,46.68
2023-03-16T09:30:59.508Z,45.35
2023-03-16T09:33:04.370Z,43.78
2023-03-16T09:35:10.226Z,44.85
2023-03-16T09:37:15.563Z,46.22
2023-03-16T09:39:21.268Z,46.69
2023-03-16T09:41:42.259Z,46.47
2023-03-16T09:44:09.634Z,46.77
2023-03-16T09:46:20.047Z,45.28
2023-03-16T09:48:25.575Z,44.91
2023-03-16T09:50:48.455Z,45.07
2023-03-16T09:53:01.076Z,45.96
2023-03-16T09:55:13.025Z,45.81
2023-03-16T09:57:24.347Z,45.22
2023-03-16T09:59:29.154Z,44.65
2023-03-16T10:01:43.587Z,44.83
2023-03-16T10:04:26.690Z,44.72
2023-03-16T10:06:31.745Z,43.96
2023-03-16T10:08:39.897Z,43.97
2023-03-16T10:11:05.531Z,43.94
2023-03-16T10:13:19.703Z,44.27
2023-03-16T10:15:27.456Z,44.34
2023-03-16T10:17:41.343Z,44.49
2023-03-16T10:19:53.235Z,44.06
2023-03-16T10:22:00.845Z,44.04
2023-03-16T10:24:13.308Z,43.55
2023-03-16T10:26:26.138Z,43.69
2023-03-16T10:28:32.105Z,42.99
2023-03-16T10:30:37.721Z,43.63
2023-03-16T10:32:42.429Z,43.19
2023-03-16T10:34:53.877Z,42.00
2023-03-16T10:36:58.669Z,41.57
2023-03-16T10:39:06.568Z,41.33
2023-03-16T10:41:23.027Z,41.83
2023-03-16T10:43:28.529Z,41.62
2023-03-16T10:45:35.273Z,41.33
2023-03-16T10:47:39.906Z,41.15
2023-03-16T10:49:47.440Z,41.14
2023-03-16T10:51:52.998Z,41.42
2023-03-16T10:54:04.763Z,41.39
2023-03-16T10:56:20.878Z,41.72
2023-03-16T10:58:30.783Z,41.57
2023-03-16T11:00:42.168Z,41.09
2023-03-16T11:02:50.288Z,41.08
2023-03-16T11:04:56.286Z,40.52
2023-03-16T11:07:01.400Z,40.69
2023-03-16T11:09:14.950Z,40.48
2023-03-16T11:11:26.538Z,41.04
2023-03-16T11:13:37.509Z,41.86
2023-03-16T11:16:00.472Z,41.81
2023-03-16T11:18:12.969Z,41.55
2023-03-16T11:20:22.676Z,41.90
2023-03-16T11:22:33.730Z,41.49
2023-03-16T11:24:49.350Z,41.36
2023-03-16T11:26:58.525Z,41.49
2023-03-16T11:29:14.537Z,41.53
2023-03-16T11:31:28.872Z,41.48
2023-03-16T11:33:34.249Z,40.76
2023-03-16T11:35:58.450Z,40.48
2023-03-16T11:38:13.674Z,40.66
2023-03-16T11:40:31.851Z,40.30
2023-03-16T11:42:43.305Z,39.73
2023-03-16T11:44:55.723Z,40.12
2023-03-16T11:47:21.515Z,40.37
2023-03-16T11:49:41.143Z,40.22
2023-03-16T11:51:55.676Z,40.27
2023-03-16T11:54:11.230Z,39.96
2023-03-16T11:56:28.834Z,39.56
2023-03-16T11:58:49.580Z,39.55
2023-03-16T12:01:01.620Z,39.94
2023-03-16T12:03:35.676Z,39.42
2023-03-16T12:05:55.642Z,39.01
2023-03-16T12:08:13.278Z,38.78
2023-03-16T12:10:34.641Z,39.34
2023-03-16T12:12:59.095Z,39.15
2023-03-16T12:15:19.489Z,37.63
2023-03-16T12:17:32.163Z,37.58
2023-03-16T12:19:44.914Z,38.02
2023-03-16T12:21:59.567Z,38.29
2023-03-16T12:24:06.744Z,38.68
2023-03-16T12:26:11.653Z,38.51
2023-03-16T12:28:23.202Z,38.16
2023-03-16T12:30:44.745Z,38.50
2023-03-16T12:32:57.791Z,38.30
2023-03-16T12:35:14.180Z,37.85
2023-03-16T12:37:28.390Z,38.11
2023-03-16T12:39:52.094Z,38.97
2023-03-16T12:42:22.944Z,38.74
2023-03-16T12:44:39.389Z,38.84
2023-03-16T12:46:52.866Z,38.59
2023-03-16T12:49:00.569Z,38.42
2023-03-16T12:51:06.127Z,38.20
2023-03-16T12:53:26.645Z,37.66
2023-03-16T12:55:45.034Z,37.64
2023-03-16T12:57:52.630Z,37.34
2023-03-16T13:00:01.695Z,36.85
2023-03-16T13:02:11.566Z,36.27
2023-03-16T13:04:19.748Z,36.67
2023-03-16T13:06:30.490Z,37.44
2023-03-16T13:08:47.632Z,36.95
2023-03-16T13:11:07.291Z,37.20
2023-03-16T13:13:14.063Z,37.01
2023-03-16T13:15:29.947Z,36.78
2023-03-16T13:17:36.213Z,36.94
2023-03-16T13:19:46.184Z,36.88
2023-03-16T13:22:03.279Z,37.00
2023-03-16T13:24:28.101Z,36.78
2023-03-16T13:26:41.584Z,36.31
2023-03-16T13:28:51.511Z,36.96
2023-03-16T13:31:00.461Z,37.26
2023-03-16T13:33:17.525Z,37.03
2023-03-16T13:35:25.661Z,36.54
2023-03-16T13:37:31.383Z,36.59
2023-03-16T13:39:36.382Z,36.71
2023-03-16T13:41:43.271Z,36.98
2023-03-16T13:43:48.154Z,36.95
2023-03-16T13:45:52.868Z,36.86
2023-03-16T13:47:58.263Z,36.43
2023-03-16T13:50:06.240Z,36.29
2023-03-16T13:52:23.962Z,36.60
2023-03-16T13:54:32.022Z,36.08
2023-03-16T13:56:36.720Z,36.29
2023-03-16T13:58:44.198Z,36.26
2023-03-16T14:00:57.794Z,36.22
2023-03-16T14:03:09.265Z,35.49
2023-03-16T14:05:21.002Z,36.38
2023-03-16T14:07:25.661Z,36.50
2023-03-16T14:09:32.920Z,35.60
2023-03-16T14:11:37.574Z,36.03
2023-03-16T14:13:50.350Z,35.92
2023-03-16T14:15:57.890Z,36.41
2023-03-16T14:18:16.618Z,36.25
2023-03-16T14:20:24.283Z,36.05
2023-03-16T14:22:34.116Z,35.90
2023-03-16T14:24:39.862Z,35.57
2023-03-16T14:26:46.607Z,35.68
2023-03-16T14:29:02.650Z,35.44
2023-03-16T14:31:10.430Z,35.22
2023-03-16T14:33:29.299Z,35.35
2023-03-16T14:35:43.936Z,34.73
2023-03-16T14:37:48.715Z,34.72
2023-03-16T14:40:05.576Z,34.77
2023-03-16T14:42:23.304Z,34.86
2023-03-16T14:44:30.540Z,34.39
2023-03-16T14:46:39.465Z,34.28
2023-03-16T14:48:44.360Z,34.79
2023-03-16T14:50:56.433Z,35.22
2023-03-16T14:53:02.596Z,34.80
2023-03-16T14:55:16.460Z,34.72
2023-03-16T14:57:24.960Z,34.27
2023-03-16T14:59:30.060Z,34.63
2023-03-16T15:01:35.013Z,34.89
2023-03-16T15:03:41.484Z,34.44
2023-03-16T15:05:48.826Z,35.06
2023-03-16T15:07:59.013Z,34.99
2023-03-16T15:10:16.857Z,34.69
2023-03-16T15:12:22.813Z,34.53
2023-03-16T15:14:30.263Z,34.32
2023-03-16T15:16:35.028Z,34.25
2023-03-16T15:18:41.600Z,34.48
2023-03-16T15:20:47.559Z,34.15
2023-03-16T15:22:53.329Z,33.67
2023-03-16T15:24:58.489Z,33.58
2023-03-16T15:27:03.589Z,33.65
2023-03-16T15:29:12.949Z,33.76
2023-03-16T15:31:20.493Z,34.21
2023-03-16T15:33:26.165Z,34.42
2023-03-16T15:35:31.151Z,34.45
2023-03-16T15:37:37.448Z,34.55
2023-03-16T15:39:46.467Z,33.96
2023-03-16T15:41:51.086Z,33.22
2023-03-16T15:43:55.716Z,33.47
2023-03-16T15:46:01.199Z,33.51
2023-03-16T15:48:11.145Z,33.97
2023-03-16T15:50:21.837Z,34.03
2023-03-16T15:52:33.527Z,33.85
2023-03-16T15:54:41.195Z,34.10
2023-03-16T15:56:53.864Z,34.19
2023-03-16T15:59:02.311Z,33.82
2023-03-16T16:01:08.112Z,34.03
2023-03-16T16:03:13.306Z,34.08
2023-03-16T16:05:18.143Z,34.68
2023-03-16T16:07:23.169Z,34.63
2023-03-16T16:09:27.883Z,34.65
2023-03-16T16:11:32.731Z,34.53
2023-03-16T16:13:44.816Z,34.42
2023-03-16T16:15:49.920Z,34.38
2023-03-16T16:18:19.313Z,34.36
2023-03-16T16:20:23.348Z,34.68
2023-03-16T16:22:28.436Z,34.76
2023-03-16T16:24:33.100Z,35.11
2023-03-16T16:26:51.967Z,35.35
2023-03-16T16:28:58.774Z,35.22
2023-03-16T16:31:08.740Z,35.61
2023-03-16T16:33:27.936Z,35.59
2023-03-16T16:35:32.917Z,35.60
2023-03-16T16:37:37.591Z,35.60
2023-03-16T16:39:42.772Z,35.77
2023-03-16T16:41:48.399Z,36.16
2023-03-16T16:43:55.746Z,36.08
2023-03-16T16:46:01.622Z,36.09
2023-03-16T16:48:24.725Z,36.28
2023-03-16T16:50:29.581Z,36.42
2023-03-16T16:52:34.847Z,36.31
2023-03-16T16:54:42.222Z,36.44
2023-03-16T16:56:48.860Z,36.28
2023-03-16T16:58:54.026Z,36.56
2023-03-16T17:00:59.163Z,36.65
2023-03-16T17:03:05.829Z,36.63
2023-03-16T17:05:16.936Z,36.70
2023-03-16T17:07:22.011Z,36.60
2023-03-16T17:09:28.038Z,36.52
2023-03-16T17:11:33.778Z,36.31
2023-03-16T17:13:40.000Z,36.46
2023-03-16T17:15:51.557Z,36.45
2023-03-16T17:18:02.241Z,36.43
2023-03-16T17:20:15.497Z,36.27
2023-03-16T17:22:25.424Z,36.33
2023-03-16T17:24:30.802Z,36.20
2023-03-16T17:26:40.589Z,36.42
2023-03-16T17:28:48.495Z,36.49
2023-03-16T17:30:55.016Z,36.40
2023-03-16T17:33:07.053Z,36.75
2023-03-16T17:35:17.652Z,36.80
2023-03-16T17:37:24.211Z,36.60
2023-03-16T17:39:32.600Z,36.41
2023-03-16T17:41:39.312Z,36.28
2023-03-16T17:43:44.919Z,36.65
2023-03-16T17:45:51.915Z,36.53
2023-03-16T17:47:57.801Z,36.58
2023-03-16T17:50:10.838Z,36.43
2023-03-16T17:52:20.124Z,36.64
2023-03-16T17:54:26.809Z,36.80
2023-03-16T17:56:34.210Z,36.97
2023-03-16T17:58:42.012Z,37.19
2023-03-16T18:00:50.458Z,37.44
2023-03-16T18:02:59.358Z,37.66
2023-03-16T18:05:07.034Z,37.86
2023-03-16T18:07:16.675Z,38.17
2023-03-16T18:09:22.622Z,38.37
2023-03-16T18:11:34.602Z,38.32
2023-03-16T18:13:43.498Z,38.50
2023-03-16T18:15:51.062Z,38.57
2023-03-16T18:18:05.923Z,38.91
2023-03-16T18:20:25.937Z,39.10
2023-03-16T18:22:34.511Z,39.41
2023-03-16T18:24:40.981Z,39.48
2023-03-16T18:26:47.139Z,39.61
2023-03-16T18:28:56.514Z,39.71
2023-03-16T18:31:07.626Z,39.87
2023-03-16T18:33:24.192Z,39.92
2023-03-16T18:35:32.498Z,39.99
2023-03-16T18:37:39.943Z,40.04
2023-03-16T18:39:47.276Z,40.33
2023-03-16T18:41:53.846Z,40.45
2023-03-16T18:44:12.649Z,40.42
2023-03-16T18:46:35.396Z,40.35
2023-03-16T18:48:43.193Z,40.43
2023-03-16T18:50:50.227Z,40.41
2023-03-16T18:53:00.802Z,40.24
2023-03-16T18:55:14.777Z,40.35
2023-03-16T18:57:23.755Z,40.35
2023-03-16T18:59:31.494Z,40.35
2023-03-16T19:01:44.209Z,40.37
2023-03-16T19:03:51.583Z,40.46
2023-03-16T19:06:01.957Z,40.27
2023-03-16T19:08:13.665Z,40.45
2023-03-16T19:10:24.416Z,40.48
2023-03-16T19:12:32.587Z,40.52
2023-03-16T19:14:39.689Z,40.28
2023-03-16T19:16:47.667Z,40.46
2023-03-16T19:18:55.506Z,40.70
2023-03-16T19:21:06.344Z,40.88
2023-03-16T19:23:22.363Z,40.72
2023-03-16T19:25:44.731Z,40.99
2023-03-16T19:27:57.044Z,40.82
2023-03-16T19:30:19.835Z,40.73
2023-03-16T19:32:27.666Z,40.85
2023-03-16T19:34:35.207Z,41.12
2023-03-16T19:36:46.469Z,41.08
2023-03-16T19:38:54.854Z,40.89
2023-03-16T19:41:06.110Z,41.30
2023-03-16T19:43:20.167Z,41.20
2023-03-16T19:45:33.387Z,41.21
2023-03-16T19:47:39.514Z,41.57
2023-03-16T19:49:45.783Z,41.59
2023-03-16T19:51:53.268Z,41.91
2023-03-16T19:54:01.276Z,41.91
2023-03-16T19:56:10.946Z,41.97
2023-03-16T19:58:26.982Z,42.03
2023-03-16T20:00:34.807Z,42.17
2023-03-16T20:02:42.678Z,42.14
2023-03-16T20:04:48.968Z,42.63
2023-03-16T20:06:57.764Z,42.41
2023-03-16T20:09:04.322Z,42.65
2023-03-16T20:11:21.433Z,42.39
2023-03-16T20:13:30.066Z,42.82
2023-03-16T20:15:41.458Z,42.82
2023-03-16T20:17:48.096Z,42.61
2023-03-16T20:19:54.385Z,43.03
2023-03-16T20:22:02.428Z,42.77
2023-03-16T20:24:17.140Z,42.96
2023-03-16T20:26:26.272Z,42.64
2023-03-16T20:28:36.308Z,42.93
2023-03-16T20:30:43.179Z,43.18
2023-03-16T20:32:49.010Z,43.24
2023-03-16T20:34:54.989Z,42.88
2023-03-16T20:37:14.205Z,42.94
2023-03-16T20:39:20.336Z,42.88
2023-03-16T20:41:30.765Z,42.81
2023-03-16T20:43:38.986Z,42.96
2023-03-16T20:45:53.107Z,42.97
2023-03-16T20:47:58.660Z,43.21
2023-03-16T20:50:17.334Z,43.08
2023-03-16T20:52:28.845Z,43.41
2023-03-16T20:54:35.596Z,43.38
2023-03-16T20:56:42.413Z,43.48
2023-03-16T20:58:53.547Z,43.35
2023-03-16T21:00:59.455Z,43.40
2023-03-16T21:03:14.320Z,43.73
2023-03-16T21:05:19.768Z,43.59
2023-03-16T21:07:25.523Z,43.59
2023-03-16T21:09:31.138Z,43.60
2023-03-16T21:11:38.792Z,43.83
2023-03-16T21:13:43.590Z,43.86
2023-03-16T21:15:48.923Z,43.60
2023-03-16T21:18:05.893Z,43.34
2023-03-16T21:20:18.041Z,43.75
2023-03-16T21:22:29.959Z,43.97
2023-03-16T21:24:34.833Z,43.81
2023-03-16T21:26:41.837Z,44.08
2023-03-16T21:28:52.038Z,43.91
2023-03-16T21:30:58.838Z,44.09
2023-03-16T21:33:11.410Z,44.03
2023-03-16T21:35:17.333Z,44.22
2023-03-16T21:37:23.376Z,44.38
2023-03-16T21:39:28.577Z,44.19
2023-03-16T21:41:33.314Z,44.60
2023-03-16T21:43:38.493Z,44.19
2023-03-16T21:45:44.209Z,44.39
2023-03-16T21:47:49.051Z,44.32
2023-03-16T21:49:54.102Z,44.59
2023-03-16T21:51:58.821Z,44.50
2023-03-16T21:54:03.704Z,44.31
2023-03-16T21:56:12.382Z,44.60
2023-03-16T21:58:17.446Z,44.33
2023-03-16T22:00:25.030Z,44.45
2023-03-16T22:02:29.938Z,44.68
2023-03-16T22:04:34.714Z,44.57
2023-03-16T22:06:39.521Z,44.62
2023-03-16T22:08:44.250Z,44.67
2023-03-16T22:10:49.042Z,44.58
2023-03-16T22:12:53.748Z,44.89
2023-03-16T22:14:58.427Z,44.73
2023-03-16T22:17:03.432Z,44.92
2023-03-16T22:19:12.656Z,45.05
2023-03-16T22:21:28.478Z,44.93
2023-03-16T22:23:35.277Z,44.99
2023-03-16T22:25:39.921Z,45.02
2023-03-16T22:27:45.060Z,45.31
2023-03-16T22:29:49.959Z,45.33
2023-03-16T22:31:57.845Z,45.77
2023-03-16T22:34:03.740Z,45.75
2023-03-16T22:36:10.767Z,45.62
2023-03-16T22:38:16.046Z,45.77
2023-03-16T22:40:23.816Z,45.92
2023-03-16T22:42:32.994Z,45.96
2023-03-16T22:44:37.648Z,45.96
2023-03-16T22:46:42.343Z,45.87
2023-03-16T22:48:47.353Z,46.09
2023-03-16T22:50:52.805Z,46.26
2023-03-16T22:53:00.870Z,46.01
2023-03-16T22:55:08.130Z,46.16
2023-03-16T22:57:15.497Z,46.19
2023-03-16T22:59:24.568Z,46.41
2023-03-16T23:01:33.881Z,46.37
2023-03-16T23:03:38.665Z,46.36
2023-03-16T23:05:43.339Z,46.23
2023-03-16T23:07:48.605Z,46.45
2023-03-16T23:09:53.328Z,46.49
2023-03-16T23:11:58.135Z,46.48
2023-03-16T23:14:03.261Z,46.56
2023-03-16T23:16:20.104Z,46.54
2023-03-16T23:18:25.887Z,46.73
2023-03-16T23:20:32.263Z,46.68
2023-03-16T23:22:37.265Z,46.96
2023-03-16T23:24:42.225Z,47.10
2023-03-16T23:26:47.074Z,47.14
2023-03-16T23:28:53.031Z,47.15
2023-03-16T23:30:57.676Z,47.32
2023-03-16T23:33:02.378Z,47.39
2023-03-16T23:35:15.744Z,47.59
2023-03-16T23:37:20.427Z,47.64
2023-03-16T23:39:25.067Z,47.79
2023-03-16T23:41:29.763Z,47.80
2023-03-16T23:43:34.484Z,47.91
2023-03-16T23:45:42.324Z,48.08
2023-03-16T23:47:48.684Z,47.99
2023-03-16T23:49:53.307Z,48.07
2023-03-16T23:52:00.401Z,48.07
2023-03-16T23:54:14.063Z,48.17
2023-03-16T23:56:18.697Z,48.39
2023-03-16T23:58:23.614Z,48.53
